createdAt,value
2023-03-01T11:50:00.845Z,6.43
2023-03-01T11:53:03.018Z,5.85
2023-03-01T11:55:49.664Z,5.97
2023-03-01T11:58:34.772Z,5.55
2023-03-01T12:01:28.952Z,5.55
2023-03-01T12:04:25.505Z,5.00
2023-03-01T12:07:01.807Z,6.22
2023-03-01T12:09:56.407Z,7.53
2023-03-01T12:13:04.517Z,5.78
2023-03-01T12:15:52.743Z,6.10
2023-03-01T12:18:58.001Z,5.93
2023-03-01T12:21:51.944Z,6.05
2023-03-01T12:28:39.437Z,5.85
2023-03-01T12:31:26.449Z,5.72
2023-03-01T12:34:09.092Z,6.30
2023-03-01T12:36:59.577Z,6.35
2023-03-01T12:39:32.358Z,6.22
2023-03-01T12:42:05.888Z,6.55
2023-03-01T12:45:10.434Z,6.10
2023-03-01T12:47:45.901Z,5.90
2023-03-01T12:50:22.724Z,6.97
2023-03-01T12:52:57.283Z,6.65
2023-03-01T12:55:30.960Z,6.18
2023-03-01T12:58:26.282Z,6.10
2023-03-01T13:01:01.305Z,7.43
2023-03-01T13:04:19.091Z,6.88
2023-03-01T13:06:55.153Z,6.90
2023-03-01T13:09:28.636Z,6.85
2023-03-01T13:11:55.547Z,6.93
2023-03-01T13:14:23.857Z,7.28
2023-03-01T13:16:55.426Z,7.28
2023-03-01T13:19:24.460Z,7.00
2023-03-01T13:21:55.669Z,6.57
2023-03-01T13:24:30.814Z,6.40
2023-03-01T13:27:06.976Z,6.90
2023-03-01T13:29:47.640Z,5.55
2023-03-01T13:32:34.536Z,7.38
2023-03-01T13:35:21.367Z,6.90
2023-03-01T13:37:48.776Z,6.80
2023-03-01T13:40:23.534Z,6.93
2023-03-01T13:43:05.109Z,8.00
2023-03-01T13:45:44.177Z,6.88
2023-03-01T13:48:31.565Z,7.88
2023-03-01T13:51:08.664Z,6.05
2023-03-01T13:53:40.317Z,6.15
2023-03-01T13:56:20.937Z,6.53
2023-03-01T13:58:51.673Z,6.07
2023-03-01T14:01:28.775Z,5.75
2023-03-01T14:03:56.573Z,6.43
2023-03-01T14:06:36.689Z,6.28
2023-03-01T14:12:11.654Z,6.50
2023-03-01T14:14:41.604Z,7.13
2023-03-01T14:17:23.553Z,5.90
2023-03-01T14:19:59.903Z,6.82
2023-03-01T14:22:36.993Z,5.97
2023-03-01T14:25:04.312Z,5.75
2023-03-01T14:27:45.697Z,5.68
2023-03-01T14:30:16.632Z,5.53
2023-03-01T14:32:43.606Z,5.70
2023-03-01T14:35:25.776Z,4.53
2023-03-01T14:37:53.209Z,5.57
2023-03-01T14:40:26.580Z,5.70
2023-03-01T14:42:55.609Z,4.93
2023-03-01T14:45:24.049Z,5.65
2023-03-01T14:47:52.147Z,4.90
2023-03-01T14:50:27.023Z,4.88
2023-03-01T14:53:03.228Z,5.47
2023-03-01T14:55:41.618Z,5.07
2023-03-01T14:58:15.457Z,5.95
2023-03-01T15:00:54.082Z,5.72
2023-03-01T15:03:33.794Z,5.10
2023-03-01T15:06:03.234Z,5.63
2023-03-01T15:08:34.029Z,5.50
2023-03-01T15:11:32.206Z,5.28
2023-03-01T15:13:59.967Z,5.20
2023-03-01T15:16:35.078Z,5.43
2023-03-01T15:19:05.342Z,6.53
2023-03-01T15:24:20.307Z,6.55
2023-03-01T15:26:54.812Z,5.32
2023-03-01T15:29:31.173Z,5.35
2023-03-01T15:32:07.549Z,5.93
2023-03-01T15:34:39.183Z,5.53
2023-03-01T15:37:09.673Z,6.07
2023-03-01T15:39:44.618Z,5.13
2023-03-01T15:42:29.724Z,5.75
2023-03-01T15:45:23.497Z,4.95
2023-03-01T15:47:58.791Z,4.78
2023-03-01T15:50:30.534Z,4.75
2023-03-01T15:52:59.447Z,4.32
2023-03-01T15:55:30.631Z,4.13
2023-03-01T15:58:01.994Z,4.30
2023-03-01T16:00:29.809Z,4.72
2023-03-01T16:02:57.484Z,4.72
2023-03-01T16:05:26.400Z,4.28
2023-03-01T16:07:53.481Z,4.35
2023-03-01T16:10:21.688Z,4.50
2023-03-01T16:12:48.855Z,3.63
2023-03-01T16:15:29.411Z,3.97
2023-03-01T16:17:59.103Z,4.03
2023-03-01T16:20:29.157Z,4.45
2023-03-01T16:23:02.047Z,3.78
2023-03-01T16:25:29.861Z,3.78
2023-03-01T16:27:59.472Z,3.78
2023-03-01T16:30:26.664Z,4.00
2023-03-01T16:32:53.761Z,4.38
2023-03-01T16:35:22.234Z,4.70
2023-03-01T16:37:50.014Z,3.85
2023-03-01T16:40:23.097Z,4.18
2023-03-01T16:42:51.430Z,3.75
2023-03-01T16:45:24.661Z,4.60
2023-03-01T16:47:55.457Z,3.80
2023-03-01T16:50:23.086Z,4.65
2023-03-01T16:52:50.007Z,4.00
2023-03-01T16:55:17.113Z,4.28
2023-03-01T16:57:44.176Z,3.95
2023-03-01T17:00:14.222Z,4.55
2023-03-01T17:02:42.439Z,4.90
2023-03-01T17:05:11.064Z,3.97
2023-03-01T17:07:38.359Z,4.45
2023-03-01T17:10:09.171Z,4.18
2023-03-01T17:12:37.248Z,5.13
2023-03-01T17:15:06.340Z,3.83
2023-03-01T17:17:33.614Z,4.70
2023-03-01T17:20:02.937Z,5.18
2023-03-01T17:22:31.554Z,5.70
2023-03-01T17:24:58.729Z,4.15
2023-03-01T17:27:25.702Z,5.03
2023-03-01T17:29:53.374Z,4.35
2023-03-01T17:32:20.871Z,5.22
2023-03-01T17:34:47.930Z,5.50
2023-03-01T17:37:15.087Z,4.65
2023-03-01T17:39:42.167Z,4.90
2023-03-01T17:42:09.315Z,4.43
2023-03-01T17:44:36.632Z,5.07
2023-03-01T17:47:04.866Z,5.18
2023-03-01T17:49:32.718Z,4.70
2023-03-01T17:52:00.132Z,4.88
2023-03-01T17:54:28.136Z,5.13
2023-03-01T17:56:56.212Z,5.03
2023-03-01T17:59:23.645Z,4.75
2023-03-01T18:01:51.023Z,4.88
2023-03-01T18:04:18.543Z,6.45
2023-03-01T18:06:46.017Z,4.95
2023-03-01T18:09:13.009Z,5.90
2023-03-01T18:11:42.039Z,4.63
2023-03-01T18:14:08.978Z,5.85
2023-03-01T18:16:36.416Z,5.32
2023-03-01T18:19:03.666Z,5.47
2023-03-01T18:21:31.550Z,6.03
2023-03-01T18:24:01.925Z,5.20
2023-03-01T18:29:03.429Z,5.10
2023-03-01T18:31:33.529Z,5.75
2023-03-01T18:36:31.607Z,5.07
2023-03-01T18:38:59.087Z,6.00
2023-03-01T18:41:27.623Z,5.35
2023-03-01T18:43:56.050Z,5.93
2023-03-01T18:46:23.330Z,5.63
2023-03-01T18:48:51.777Z,5.95
2023-03-01T18:51:22.040Z,5.65
2023-03-01T18:56:16.295Z,5.63
2023-03-01T18:58:43.772Z,6.65
2023-03-01T19:01:16.325Z,5.90
2023-03-01T19:03:43.434Z,6.55
2023-03-01T19:06:10.656Z,7.03
2023-03-01T19:08:38.266Z,7.15
2023-03-01T19:11:06.873Z,8.82
2023-03-01T19:13:35.492Z,8.25
2023-03-01T19:16:14.234Z,9.05
2023-03-01T19:18:43.631Z,8.48
2023-03-01T19:21:12.119Z,8.67
2023-03-01T19:23:39.426Z,9.23
2023-03-01T19:26:10.012Z,7.95
2023-03-01T19:28:39.593Z,8.20
2023-03-01T19:31:12.627Z,7.95
2023-03-01T19:33:40.293Z,7.88
2023-03-01T19:36:08.496Z,8.27
2023-03-01T19:38:36.310Z,7.80
2023-03-01T19:41:09.008Z,8.82
2023-03-01T19:43:36.757Z,9.02
2023-03-01T19:46:04.563Z,8.23
2023-03-01T19:48:31.853Z,8.75
2023-03-01T19:50:58.955Z,9.55
2023-03-01T19:53:26.055Z,10.13
2023-03-01T19:56:00.867Z,13.07
2023-03-01T19:58:29.239Z,14.00
2023-03-01T20:00:59.017Z,15.10
2023-03-01T20:03:28.278Z,14.32
2023-03-01T20:05:56.573Z,13.10
2023-03-01T20:08:24.699Z,13.05
2023-03-01T20:10:51.969Z,11.65
2023-03-01T20:13:21.223Z,12.63
2023-03-01T20:15:48.436Z,11.98
2023-03-01T20:18:15.748Z,12.10
2023-03-01T20:20:42.713Z,13.95
2023-03-01T20:23:09.568Z,14.35
2023-03-01T20:25:36.464Z,14.40
2023-03-01T20:28:03.456Z,14.43
2023-03-01T20:30:30.450Z,13.13
2023-03-01T20:32:57.737Z,13.18
2023-03-01T20:35:24.719Z,11.55
2023-03-01T20:37:53.454Z,10.35
2023-03-01T20:40:27.018Z,10.48
2023-03-01T20:42:58.263Z,9.95
2023-03-01T20:45:28.002Z,10.63
2023-03-01T20:47:55.809Z,8.98
2023-03-01T20:50:23.156Z,9.25
2023-03-01T20:52:50.053Z,10.68
2023-03-01T20:55:16.936Z,13.60
2023-03-01T20:57:43.978Z,12.40
2023-03-01T21:00:11.470Z,9.40
2023-03-01T21:02:39.189Z,8.88
2023-03-01T21:05:06.652Z,8.45
2023-03-01T21:07:33.977Z,7.28
2023-03-01T21:10:01.076Z,6.82
2023-03-01T21:12:28.033Z,7.55
2023-03-01T21:14:54.917Z,7.30
2023-03-01T21:17:21.843Z,7.35
2023-03-01T21:19:49.832Z,6.47
2023-03-01T21:22:17.055Z,6.30
2023-03-01T21:24:44.059Z,6.43
2023-03-01T21:27:11.939Z,6.47
2023-03-01T21:29:40.565Z,5.63
2023-03-01T21:32:08.689Z,6.70
2023-03-01T21:34:37.459Z,6.05
2023-03-01T21:37:05.743Z,6.80
2023-03-01T21:39:33.898Z,6.63
2023-03-01T21:42:02.259Z,5.40
2023-03-01T21:44:30.568Z,6.43
2023-03-01T21:46:59.066Z,6.78
2023-03-01T21:49:26.965Z,6.45
2023-03-01T21:51:54.144Z,6.90
2023-03-01T21:54:21.295Z,6.20
2023-03-01T21:56:49.316Z,6.90
2023-03-01T21:59:21.501Z,7.03
2023-03-01T22:01:49.237Z,6.57
2023-03-01T22:04:17.024Z,6.47
2023-03-01T22:06:45.898Z,7.60
2023-03-01T22:09:14.358Z,8.13
2023-03-01T22:11:47.465Z,6.95
2023-03-01T22:14:15.163Z,7.18
2023-03-01T22:16:44.433Z,7.88
2023-03-01T22:19:12.832Z,6.82
2023-03-01T22:21:41.661Z,6.43
2023-03-01T22:24:09.621Z,8.07
2023-03-01T22:26:39.598Z,8.68
2023-03-01T22:29:09.265Z,10.95
2023-03-01T22:31:36.399Z,12.65
2023-03-01T22:34:03.536Z,11.93
2023-03-01T22:36:31.352Z,12.13
2023-03-01T22:39:00.399Z,11.70
2023-03-01T22:41:34.218Z,11.52
2023-03-01T22:44:01.476Z,10.27
2023-03-01T22:46:29.521Z,10.20
2023-03-01T22:48:56.644Z,9.45
2023-03-01T22:51:33.435Z,9.88
2023-03-01T22:54:00.701Z,9.07
2023-03-01T22:56:30.941Z,9.10
2023-03-01T22:59:04.574Z,10.50
2023-03-01T23:01:32.070Z,9.07
2023-03-01T23:03:59.506Z,9.65
2023-03-01T23:06:30.798Z,8.32
2023-03-01T23:09:00.553Z,9.32
2023-03-01T23:11:28.265Z,10.00
2023-03-01T23:13:55.421Z,9.18
2023-03-01T23:16:26.177Z,9.73
2023-03-01T23:18:55.210Z,10.88
2023-03-01T23:21:22.132Z,9.73
2023-03-01T23:23:49.467Z,9.48
2023-03-01T23:26:17.434Z,8.68
2023-03-01T23:28:44.415Z,12.13
2023-03-01T23:31:14.064Z,11.88
2023-03-01T23:33:45.216Z,11.57
2023-03-01T23:36:19.483Z,8.65
2023-03-01T23:38:48.347Z,8.57
2023-03-01T23:41:17.964Z,6.68
2023-03-01T23:43:46.245Z,7.72
2023-03-01T23:46:18.145Z,6.90
2023-03-01T23:48:45.568Z,7.35
2023-03-01T23:51:13.787Z,6.35
2023-03-01T23:53:43.614Z,5.75
2023-03-01T23:56:12.882Z,6.57
2023-03-01T23:58:39.858Z,5.93
